createdAt,value
2019-03-08T00:00:44.905Z,0.00
2019-03-08T00:01:44.894Z,0.00
2019-03-08T00:02:44.896Z,0.00
2019-03-08T00:03:44.873Z,0.00
2019-03-08T00:04:44.866Z,0.00
2019-03-08T00:05:44.849Z,0.00
2019-03-08T00:06:44.869Z,0.00
2019-03-08T00:07:44.840Z,0.00
2019-03-08T00:08:44.810Z,0.00
2019-03-08T00:09:44.800Z,0.00
2019-03-08T00:10:44.791Z,0.00
2019-03-08T00:11:44.780Z,0.00
2019-03-08T00:12:44.781Z,0.00
2019-03-08T00:13:44.763Z,0.00
2019-03-08T00:14:44.744Z,0.00
2019-03-08T00:15:44.737Z,0.00
2019-03-08T00:16:44.723Z,0.00
2019-03-08T00:17:44.736Z,0.00
2019-03-08T00:18:44.700Z,0.00
2019-03-08T00:19:44.698Z,0.00
2019-03-08T00:20:44.678Z,0.00
2019-03-08T00:21:44.670Z,0.00
2019-03-08T00:22:44.668Z,0.00
2019-03-08T00:23:44.643Z,0.00
2019-03-08T00:24:44.647Z,0.00
2019-03-08T00:25:44.623Z,0.00
2019-03-08T00:26:44.627Z,0.00
2019-03-08T00:27:44.612Z,0.00
2019-03-08T00:28:44.588Z,0.00
2019-03-08T00:29:44.589Z,0.00
2019-03-08T00:30:44.570Z,0.00
2019-03-08T00:31:44.553Z,0.00
2019-03-08T00:32:44.594Z,0.00
2019-03-08T00:33:44.530Z,0.00
2019-03-08T00:34:44.548Z,0.00
2019-03-08T00:35:44.521Z,0.00
2019-03-08T00:36:44.498Z,0.00
2019-03-08T00:37:44.518Z,0.00
2019-03-08T00:38:44.516Z,0.00
2019-03-08T00:39:44.468Z,0.00
2019-03-08T00:40:44.451Z,0.00
2019-03-08T00:41:44.447Z,0.00
2019-03-08T00:42:44.430Z,0.00
2019-03-08T00:43:44.428Z,0.00
2019-03-08T00:44:44.406Z,0.00
2019-03-08T00:45:44.400Z,0.00
2019-03-08T00:46:44.386Z,0.00
2019-03-08T00:47:44.374Z,0.00
2019-03-08T00:48:44.376Z,0.00
2019-03-08T00:49:44.358Z,0.00
2019-03-08T00:50:44.342Z,0.00
2019-03-08T00:51:44.333Z,0.00
2019-03-08T00:52:44.322Z,0.00
2019-03-08T00:53:44.380Z,0.00
2019-03-08T00:54:44.297Z,0.00
2019-03-08T00:55:44.291Z,0.00
2019-03-08T00:56:44.275Z,0.00
2019-03-08T00:57:44.270Z,0.00
2019-03-08T00:58:44.279Z,0.00
2019-03-08T00:59:44.238Z,0.00
2019-03-08T01:00:44.229Z,0.00
2019-03-08T01:01:44.219Z,0.00
2019-03-08T01:02:44.211Z,0.00
2019-03-08T01:03:44.207Z,0.00
2019-03-08T01:04:44.195Z,0.00
2019-03-08T01:05:44.201Z,0.00
2019-03-08T01:06:44.185Z,0.00
2019-03-08T01:07:44.197Z,0.00
2019-03-08T01:08:44.195Z,0.00
2019-03-08T01:09:44.212Z,0.00
2019-03-08T01:10:44.151Z,0.00
2019-03-08T01:11:45.314Z,0.00
2019-03-08T01:12:44.110Z,0.00
2019-03-08T01:13:44.122Z,0.00
2019-03-08T01:14:44.127Z,0.00
2019-03-08T01:15:44.136Z,0.00
2019-03-08T01:16:44.092Z,0.00
2019-03-08T01:17:44.061Z,0.00
2019-03-08T01:18:44.211Z,0.00
2019-03-08T01:19:44.043Z,0.00
2019-03-08T01:20:44.029Z,0.00
2019-03-08T01:21:44.044Z,0.00
2019-03-08T01:22:44.027Z,0.00
2019-03-08T01:23:44.226Z,0.00
2019-03-08T01:24:43.995Z,0.00
2019-03-08T01:25:43.980Z,0.00
2019-03-08T01:26:43.985Z,0.00
2019-03-08T01:27:43.945Z,0.00
2019-03-08T01:28:44.070Z,0.00
2019-03-08T01:29:43.920Z,0.00
2019-03-08T01:30:43.907Z,0.00
2019-03-08T01:31:43.953Z,0.00
2019-03-08T01:32:43.997Z,0.00
2019-03-08T01:33:43.897Z,0.00
2019-03-08T01:34:43.867Z,0.00
2019-03-08T01:35:43.942Z,0.00
2019-03-08T01:36:43.888Z,0.00
2019-03-08T01:37:43.827Z,0.00
2019-03-08T01:38:43.846Z,0.00
2019-03-08T01:39:43.808Z,0.00
2019-03-08T01:40:43.805Z,0.00
2019-03-08T01:41:44.499Z,0.00
2019-03-08T01:42:43.778Z,0.00
2019-03-08T01:43:43.790Z,0.00
2019-03-08T01:44:43.750Z,0.00
2019-03-08T01:45:43.772Z,0.00
2019-03-08T01:46:43.735Z,0.00
2019-03-08T01:47:43.766Z,0.00
2019-03-08T01:48:43.733Z,0.00
2019-03-08T01:49:43.731Z,0.00
2019-03-08T01:50:43.721Z,0.00
2019-03-08T01:51:43.698Z,0.00
2019-03-08T01:52:43.722Z,0.00
2019-03-08T01:53:43.678Z,0.00
2019-03-08T01:54:43.654Z,0.00
2019-03-08T01:55:43.627Z,0.00
2019-03-08T01:56:43.620Z,0.00
2019-03-08T01:57:43.609Z,0.00
2019-03-08T01:58:43.600Z,0.00
2019-03-08T01:59:43.625Z,0.00
2019-03-08T02:00:43.570Z,0.00
2019-03-08T02:01:43.585Z,0.00
2019-03-08T02:02:43.623Z,0.00
2019-03-08T02:03:43.527Z,0.00
2019-03-08T02:04:43.546Z,0.00
2019-03-08T02:05:43.515Z,0.00
2019-03-08T02:06:43.517Z,0.00
2019-03-08T02:07:44.062Z,0.00
2019-03-08T02:08:43.501Z,0.00
2019-03-08T02:09:43.493Z,0.00
2019-03-08T02:10:43.469Z,0.00
2019-03-08T02:11:43.443Z,0.00
2019-03-08T02:12:43.434Z,0.00
2019-03-08T02:13:43.429Z,0.00
2019-03-08T02:14:43.535Z,0.00
2019-03-08T02:15:43.572Z,0.00
2019-03-08T02:16:43.415Z,0.00
2019-03-08T02:17:43.442Z,0.00
2019-03-08T02:18:43.400Z,0.00
2019-03-08T02:19:43.407Z,0.00
2019-03-08T02:20:43.362Z,0.00
2019-03-08T02:21:43.443Z,0.00
2019-03-08T02:22:43.322Z,0.00
2019-03-08T02:23:43.307Z,0.00
2019-03-08T02:24:43.313Z,0.00
2019-03-08T02:25:43.298Z,0.00
2019-03-08T02:26:43.312Z,0.00
2019-03-08T02:27:43.269Z,0.00
2019-03-08T02:28:43.268Z,0.00
2019-03-08T02:29:43.263Z,0.00
2019-03-08T02:30:43.244Z,0.00
2019-03-08T02:31:43.238Z,0.00
2019-03-08T02:32:43.206Z,0.00
2019-03-08T02:33:43.205Z,0.00
2019-03-08T02:34:43.202Z,0.00
2019-03-08T02:35:43.176Z,0.00
2019-03-08T02:36:43.184Z,0.00
2019-03-08T02:37:43.176Z,0.00
2019-03-08T02:38:43.156Z,0.00
2019-03-08T02:39:43.162Z,0.00
2019-03-08T02:40:43.128Z,0.00
2019-03-08T02:41:43.138Z,0.00
2019-03-08T02:42:43.103Z,0.00
2019-03-08T02:43:43.091Z,0.00
2019-03-08T02:44:43.135Z,0.00
2019-03-08T02:45:43.067Z,0.00
2019-03-08T02:46:43.064Z,0.00
2019-03-08T02:47:43.048Z,0.00
2019-03-08T02:48:43.044Z,0.00
2019-03-08T02:49:43.048Z,0.00
2019-03-08T02:50:43.046Z,0.00
2019-03-08T02:51:43.009Z,0.00
2019-03-08T02:52:43.091Z,0.00
2019-03-08T02:53:42.995Z,0.00
2019-03-08T02:54:43.115Z,0.00
2019-03-08T02:55:42.965Z,0.00
2019-03-08T02:56:42.936Z,0.00
2019-03-08T02:57:42.935Z,0.00
2019-03-08T02:58:42.917Z,0.00
2019-03-08T02:59:42.976Z,0.00
2019-03-08T03:00:42.896Z,0.00
2019-03-08T03:01:42.884Z,0.00
2019-03-08T03:02:42.887Z,0.00
2019-03-08T03:03:42.876Z,0.00
2019-03-08T03:04:42.869Z,0.00
2019-03-08T03:05:42.863Z,0.00
2019-03-08T03:06:42.829Z,0.00
2019-03-08T03:07:42.819Z,0.00
2019-03-08T03:08:42.800Z,0.00
2019-03-08T03:09:43.100Z,0.00
2019-03-08T03:10:42.801Z,0.00
2019-03-08T03:11:42.820Z,0.00
2019-03-08T03:12:42.782Z,0.00
2019-03-08T03:13:45.545Z,0.00
2019-03-08T03:14:42.759Z,0.00
2019-03-08T03:15:42.756Z,0.00
2019-03-08T03:16:43.512Z,0.00
2019-03-08T03:17:42.704Z,0.00
2019-03-08T03:18:42.768Z,0.00
2019-03-08T03:19:42.708Z,0.00
2019-03-08T03:20:42.707Z,0.00
2019-03-08T03:21:42.690Z,0.00
2019-03-08T03:22:42.669Z,0.00
2019-03-08T03:23:42.693Z,0.00
2019-03-08T03:24:42.654Z,0.00
2019-03-08T03:25:42.646Z,0.00
2019-03-08T03:26:42.619Z,0.00
2019-03-08T03:27:42.609Z,0.00
2019-03-08T03:28:42.599Z,0.00
2019-03-08T03:29:42.586Z,0.00
2019-03-08T03:30:42.565Z,0.00
2019-03-08T03:31:42.555Z,0.00
2019-03-08T03:32:42.556Z,0.00
2019-03-08T03:33:42.551Z,0.00
2019-03-08T03:34:42.568Z,0.00
2019-03-08T03:35:42.502Z,0.00
2019-03-08T03:36:42.508Z,0.00
2019-03-08T03:37:42.487Z,0.00
2019-03-08T03:38:42.489Z,0.00
2019-03-08T03:39:42.494Z,0.00
2019-03-08T03:40:42.443Z,0.00
2019-03-08T03:41:42.440Z,0.00
2019-03-08T03:42:42.425Z,0.00
2019-03-08T03:43:42.435Z,0.00
2019-03-08T03:44:42.481Z,0.00
2019-03-08T03:45:42.417Z,0.00
2019-03-08T03:46:42.384Z,0.00
2019-03-08T03:47:42.376Z,0.00
2019-03-08T03:48:42.365Z,0.00
2019-03-08T03:49:42.413Z,0.00
2019-03-08T03:50:42.357Z,0.00
2019-03-08T03:51:42.338Z,0.00
2019-03-08T03:52:42.316Z,0.00
2019-03-08T03:53:42.313Z,0.00
2019-03-08T03:54:42.339Z,0.00
2019-03-08T03:55:42.292Z,0.00
2019-03-08T03:56:42.284Z,0.00
2019-03-08T03:57:42.262Z,0.00
2019-03-08T03:58:42.259Z,0.00
2019-03-08T03:59:42.253Z,0.00
2019-03-08T04:00:42.231Z,0.00
2019-03-08T04:01:42.210Z,0.00
2019-03-08T04:02:42.199Z,0.00
2019-03-08T04:03:42.187Z,0.00
2019-03-08T04:04:42.205Z,0.00
2019-03-08T04:05:42.166Z,0.00
2019-03-08T04:06:42.169Z,0.00
2019-03-08T04:07:42.142Z,0.00
2019-03-08T04:08:42.130Z,0.00
2019-03-08T04:09:42.167Z,0.00
2019-03-08T04:10:42.108Z,0.00
2019-03-08T04:11:42.104Z,0.00
2019-03-08T04:12:42.083Z,0.00
2019-03-08T04:13:42.084Z,0.00
2019-03-08T04:14:42.075Z,0.00
2019-03-08T04:15:42.057Z,0.00
2019-03-08T04:16:42.065Z,0.00
2019-03-08T04:17:42.039Z,0.00
2019-03-08T04:18:42.030Z,0.00
2019-03-08T04:19:42.030Z,0.00
2019-03-08T04:20:42.001Z,0.00
2019-03-08T04:21:41.997Z,0.00
2019-03-08T04:22:41.986Z,0.00
2019-03-08T04:23:42.021Z,0.00
2019-03-08T04:24:41.967Z,0.00
2019-03-08T04:25:41.962Z,0.00
2019-03-08T04:26:41.935Z,0.00
2019-03-08T04:27:41.972Z,0.00
2019-03-08T04:28:41.955Z,0.00
2019-03-08T04:29:41.929Z,0.00
2019-03-08T04:30:41.892Z,0.00
2019-03-08T04:31:41.877Z,0.00
2019-03-08T04:32:41.865Z,0.00
2019-03-08T04:33:41.888Z,0.00
2019-03-08T04:34:41.839Z,0.00
2019-03-08T04:35:41.839Z,0.00
2019-03-08T04:36:41.815Z,0.00
2019-03-08T04:37:41.822Z,0.00
2019-03-08T04:38:41.801Z,0.00
2019-03-08T04:39:41.802Z,0.00
2019-03-08T04:40:41.790Z,0.00
2019-03-08T04:41:41.764Z,0.00
2019-03-08T04:42:41.764Z,0.00
2019-03-08T04:43:41.741Z,0.00
2019-03-08T04:44:41.747Z,0.00
2019-03-08T04:45:41.727Z,0.00
2019-03-08T04:46:41.788Z,0.00
2019-03-08T04:47:41.724Z,0.00
2019-03-08T04:48:41.701Z,0.00
2019-03-08T04:49:41.682Z,0.00
2019-03-08T04:50:41.692Z,0.00
2019-03-08T04:51:41.668Z,0.00
2019-03-08T04:52:41.686Z,0.00
2019-03-08T04:53:41.625Z,0.00
2019-03-08T04:54:41.625Z,0.00
2019-03-08T04:55:41.625Z,0.00
2019-03-08T04:56:41.600Z,0.00
2019-03-08T04:57:41.624Z,0.00
2019-03-08T04:58:41.567Z,0.00
2019-03-08T04:59:41.556Z,0.00
2019-03-08T05:00:41.562Z,0.00
2019-03-08T05:01:41.548Z,0.00
2019-03-08T05:02:41.528Z,0.00
2019-03-08T05:03:41.553Z,0.00
2019-03-08T05:04:41.517Z,0.00
2019-03-08T05:05:42.034Z,0.00
2019-03-08T05:06:41.506Z,0.00
2019-03-08T05:07:41.465Z,0.00
2019-03-08T05:08:41.471Z,0.00
2019-03-08T05:09:41.454Z,0.00
2019-03-08T05:10:41.474Z,0.00
2019-03-08T05:11:41.445Z,0.00
2019-03-08T05:12:41.449Z,0.00
2019-03-08T05:13:41.401Z,0.00
2019-03-08T05:14:41.402Z,0.00
2019-03-08T05:15:41.412Z,0.00
2019-03-08T05:16:41.370Z,0.00
2019-03-08T05:17:41.367Z,0.00
2019-03-08T05:18:41.354Z,0.00
2019-03-08T05:19:41.358Z,4.00
2019-03-08T05:20:41.345Z,4.00
2019-03-08T05:21:41.340Z,0.00
2019-03-08T05:22:41.314Z,0.00
2019-03-08T05:23:41.314Z,0.00
2019-03-08T05:24:41.295Z,4.00
2019-03-08T05:25:41.299Z,4.00
2019-03-08T05:26:41.273Z,4.00
2019-03-08T05:27:41.259Z,4.00
2019-03-08T05:28:41.246Z,4.00
2019-03-08T05:29:41.234Z,4.00
2019-03-08T05:30:41.222Z,4.00
2019-03-08T05:31:41.219Z,8.00
2019-03-08T05:32:41.206Z,4.00
2019-03-08T05:33:41.186Z,8.00
2019-03-08T05:34:41.168Z,8.00
2019-03-08T05:35:41.176Z,8.00
2019-03-08T05:36:41.176Z,8.00
2019-03-08T05:37:41.133Z,12.00
2019-03-08T05:38:41.124Z,8.00
2019-03-08T05:39:41.114Z,12.00
2019-03-08T05:40:41.107Z,8.00
2019-03-08T05:41:41.097Z,12.00
2019-03-08T05:42:41.095Z,12.00
2019-03-08T05:43:41.067Z,16.00
2019-03-08T05:44:41.054Z,16.00
2019-03-08T05:45:41.110Z,20.00
2019-03-08T05:46:42.590Z,20.00
2019-03-08T05:47:41.031Z,16.00
2019-03-08T05:48:41.010Z,16.00
2019-03-08T05:49:41.011Z,20.00
2019-03-08T05:50:41.062Z,16.00
2019-03-08T05:51:40.998Z,20.00
2019-03-08T05:52:43.035Z,20.00
2019-03-08T05:53:41.073Z,24.00
2019-03-08T05:54:40.964Z,24.00
2019-03-08T05:55:40.943Z,32.00
2019-03-08T05:56:40.933Z,32.00
2019-03-08T05:57:40.912Z,32.00
2019-03-08T05:58:40.905Z,32.00
2019-03-08T05:59:40.910Z,36.00
2019-03-08T06:00:40.905Z,40.00
2019-03-08T06:01:44.577Z,36.00
2019-03-08T06:02:40.864Z,44.00
2019-03-08T06:03:40.863Z,56.00
2019-03-08T06:04:40.836Z,48.00
2019-03-08T06:05:40.838Z,60.00
2019-03-08T06:06:40.850Z,64.00
2019-03-08T06:07:40.828Z,92.00
2019-03-08T06:08:40.809Z,112.00
2019-03-08T06:09:40.787Z,132.00
2019-03-08T06:10:40.783Z,140.00
2019-03-08T06:11:40.781Z,116.00
2019-03-08T06:12:40.734Z,128.00
2019-03-08T06:13:40.743Z,100.00
2019-03-08T06:14:40.731Z,92.00
2019-03-08T06:15:40.725Z,92.00
2019-03-08T06:16:40.727Z,112.00
2019-03-08T06:17:40.693Z,112.00
2019-03-08T06:18:40.694Z,112.00
2019-03-08T06:19:40.691Z,132.00
2019-03-08T06:20:41.544Z,164.00
2019-03-08T06:21:40.666Z,208.00
2019-03-08T06:22:40.644Z,212.00
2019-03-08T06:23:40.625Z,176.00
2019-03-08T06:24:40.611Z,140.00
2019-03-08T06:25:40.601Z,164.00
2019-03-08T06:26:40.595Z,172.00
2019-03-08T06:27:40.597Z,280.00
2019-03-08T06:28:40.567Z,264.00
2019-03-08T06:29:40.561Z,216.00
2019-03-08T06:30:40.544Z,236.00
2019-03-08T06:31:40.544Z,380.00
2019-03-08T06:32:40.522Z,268.00
2019-03-08T06:33:40.509Z,240.00
2019-03-08T06:34:40.519Z,212.00
2019-03-08T06:35:40.510Z,248.00
2019-03-08T06:36:40.505Z,268.00
2019-03-08T06:37:40.464Z,312.00
2019-03-08T06:38:40.460Z,216.00
2019-03-08T06:39:40.459Z,272.00
2019-03-08T06:40:40.452Z,264.00
2019-03-08T06:41:40.441Z,232.00
2019-03-08T06:42:40.412Z,248.00
2019-03-08T06:43:40.396Z,224.00
2019-03-08T06:44:40.405Z,212.00
2019-03-08T06:45:40.368Z,192.00
2019-03-08T06:46:40.394Z,180.00
2019-03-08T06:47:40.384Z,184.00
2019-03-08T06:48:40.338Z,160.00
2019-03-08T06:49:40.347Z,180.00
2019-03-08T06:50:40.330Z,188.00
2019-03-08T06:51:40.333Z,224.00
2019-03-08T06:52:40.295Z,232.00
2019-03-08T06:53:40.295Z,216.00
2019-03-08T06:54:40.281Z,204.00
2019-03-08T06:55:40.262Z,236.00
2019-03-08T06:56:40.265Z,196.00
2019-03-08T06:57:40.250Z,204.00
2019-03-08T06:58:40.219Z,200.00
2019-03-08T06:59:40.214Z,180.00
2019-03-08T07:00:40.203Z,152.00
2019-03-08T07:01:40.211Z,136.00
2019-03-08T07:02:40.202Z,104.00
2019-03-08T07:03:40.189Z,100.00
2019-03-08T07:04:41.082Z,112.00
2019-03-08T07:05:40.145Z,128.00
2019-03-08T07:06:40.147Z,140.00
2019-03-08T07:07:40.140Z,148.00
2019-03-08T07:08:40.142Z,160.00
2019-03-08T07:09:40.110Z,204.00
2019-03-08T07:10:40.085Z,272.00
2019-03-08T07:11:40.086Z,272.00
2019-03-08T07:12:40.092Z,240.00
2019-03-08T07:13:40.085Z,208.00
2019-03-08T07:14:40.050Z,208.00
2019-03-08T07:15:40.036Z,244.00
2019-03-08T07:16:40.047Z,292.00
2019-03-08T07:17:40.047Z,316.00
2019-03-08T07:18:40.023Z,340.00
2019-03-08T07:19:40.968Z,332.00
2019-03-08T07:20:39.977Z,376.00
2019-03-08T07:21:39.976Z,472.00
2019-03-08T07:22:39.969Z,484.00
2019-03-08T07:23:39.952Z,444.00
2019-03-08T07:24:39.942Z,400.00
2019-03-08T07:25:39.924Z,484.00
2019-03-08T07:26:39.946Z,504.00
2019-03-08T07:27:39.923Z,528.00
2019-03-08T07:28:39.953Z,448.00
2019-03-08T07:29:39.885Z,504.00
2019-03-08T07:30:39.928Z,564.00
2019-03-08T07:31:39.913Z,444.00
2019-03-08T07:32:39.878Z,456.00
2019-03-08T07:33:39.831Z,460.00
2019-03-08T07:34:39.836Z,436.00
2019-03-08T07:35:39.824Z,436.00
2019-03-08T07:36:40.607Z,412.00
2019-03-08T07:37:40.319Z,412.00
2019-03-08T07:38:39.816Z,420.00
2019-03-08T07:39:39.763Z,384.00
2019-03-08T07:40:39.774Z,436.00
2019-03-08T07:41:39.782Z,404.00
2019-03-08T07:42:39.726Z,372.00
2019-03-08T07:43:39.719Z,380.00
2019-03-08T07:44:39.727Z,420.00
2019-03-08T07:45:39.697Z,444.00
2019-03-08T07:46:39.699Z,432.00
2019-03-08T07:47:39.701Z,536.00
2019-03-08T07:48:39.715Z,472.00
2019-03-08T07:49:39.649Z,484.00
2019-03-08T07:50:39.636Z,508.00
2019-03-08T07:51:39.657Z,484.00
2019-03-08T07:52:39.642Z,656.00
2019-03-08T07:53:39.615Z,552.00
2019-03-08T07:54:39.582Z,520.00
2019-03-08T07:55:39.564Z,536.00
2019-03-08T07:56:39.585Z,676.00
2019-03-08T07:57:39.547Z,800.00
2019-03-08T07:58:39.536Z,816.00
2019-03-08T07:59:39.522Z,820.00
2019-03-08T08:00:39.513Z,756.00
2019-03-08T08:01:39.504Z,820.00
2019-03-08T08:02:39.499Z,868.00
2019-03-08T08:03:39.482Z,812.00
2019-03-08T08:04:39.463Z,896.00
2019-03-08T08:05:39.462Z,760.00
2019-03-08T08:06:39.446Z,676.00
2019-03-08T08:07:39.526Z,728.00
2019-03-08T08:08:39.432Z,788.00
2019-03-08T08:09:39.406Z,1120.00
2019-03-08T08:10:39.397Z,1260.00
2019-03-08T08:11:39.385Z,1084.00
2019-03-08T08:12:39.384Z,1268.00
2019-03-08T08:13:39.442Z,1068.00
2019-03-08T08:14:39.984Z,1036.00
2019-03-08T08:15:39.402Z,720.00
2019-03-08T08:16:39.332Z,584.00
2019-03-08T08:17:39.347Z,528.00
2019-03-08T08:18:39.384Z,444.00
2019-03-08T08:19:39.308Z,524.00
2019-03-08T08:20:39.291Z,544.00
2019-03-08T08:21:39.274Z,592.00
2019-03-08T08:22:39.273Z,556.00
2019-03-08T08:23:39.297Z,560.00
2019-03-08T08:24:39.241Z,560.00
2019-03-08T08:25:39.243Z,552.00
2019-03-08T08:26:39.215Z,648.00
2019-03-08T08:27:39.213Z,604.00
2019-03-08T08:28:39.193Z,664.00
2019-03-08T08:29:39.183Z,888.00
2019-03-08T08:30:39.181Z,976.00
2019-03-08T08:31:39.159Z,1356.00
2019-03-08T08:32:39.161Z,1460.00
2019-03-08T08:33:39.138Z,1400.00
2019-03-08T08:34:39.158Z,1488.00
2019-03-08T08:35:39.124Z,1504.00
2019-03-08T08:36:39.109Z,1240.00
2019-03-08T08:37:39.123Z,944.00
2019-03-08T08:38:39.082Z,936.00
2019-03-08T08:39:40.957Z,720.00
2019-03-08T08:40:39.059Z,1000.00
2019-03-08T08:41:39.055Z,1348.00
2019-03-08T08:42:39.054Z,1152.00
2019-03-08T08:43:39.025Z,812.00
2019-03-08T08:44:39.011Z,796.00
2019-03-08T08:45:39.132Z,808.00
2019-03-08T08:46:38.991Z,636.00
2019-03-08T08:47:38.994Z,580.00
2019-03-08T08:48:38.972Z,640.00
2019-03-08T08:49:38.959Z,820.00
2019-03-08T08:50:38.963Z,772.00
2019-03-08T08:51:38.933Z,624.00
2019-03-08T08:52:38.934Z,556.00
2019-03-08T08:53:38.913Z,700.00
2019-03-08T08:54:38.905Z,944.00
2019-03-08T08:55:38.892Z,948.00
2019-03-08T08:56:38.877Z,736.00
2019-03-08T08:57:38.905Z,676.00
2019-03-08T08:58:38.865Z,556.00
2019-03-08T08:59:38.852Z,624.00
2019-03-08T09:00:38.833Z,568.00
2019-03-08T09:01:38.820Z,724.00
2019-03-08T09:02:38.841Z,692.00
2019-03-08T09:03:38.794Z,828.00
2019-03-08T09:04:38.784Z,760.00
2019-03-08T09:05:38.771Z,752.00
2019-03-08T09:06:38.759Z,552.00
2019-03-08T09:07:38.748Z,612.00
2019-03-08T09:08:38.750Z,664.00
2019-03-08T09:09:38.730Z,836.00
2019-03-08T09:10:38.718Z,756.00
2019-03-08T09:11:45.940Z,888.00
2019-03-08T09:12:39.734Z,764.00
2019-03-08T09:13:38.692Z,812.00
2019-03-08T09:14:38.670Z,824.00
2019-03-08T09:15:38.666Z,612.00
2019-03-08T09:16:38.652Z,736.00
2019-03-08T09:17:38.640Z,636.00
2019-03-08T09:18:38.644Z,788.00
2019-03-08T09:19:38.645Z,828.00
2019-03-08T09:20:39.682Z,908.00
2019-03-08T09:21:43.111Z,876.00
2019-03-08T09:22:39.356Z,892.00
2019-03-08T09:23:43.197Z,900.00
2019-03-08T09:24:39.579Z,828.00
2019-03-08T09:25:41.133Z,768.00
2019-03-08T09:26:55.072Z,752.00
2019-03-08T09:28:04.106Z,584.00
2019-03-08T09:28:40.674Z,556.00
2019-03-08T09:29:41.434Z,572.00
2019-03-08T09:30:38.501Z,476.00
2019-03-08T09:31:38.609Z,552.00
2019-03-08T09:32:38.481Z,592.00
2019-03-08T09:33:38.468Z,724.00
2019-03-08T09:34:38.476Z,600.00
2019-03-08T09:35:38.445Z,736.00
2019-03-08T09:36:38.433Z,716.00
2019-03-08T09:37:38.417Z,860.00
2019-03-08T09:38:39.149Z,680.00
2019-03-08T09:39:38.405Z,640.00
2019-03-08T09:40:38.387Z,624.00
2019-03-08T09:41:38.375Z,868.00
2019-03-08T09:42:38.363Z,936.00
2019-03-08T09:43:38.355Z,880.00
2019-03-08T09:44:38.354Z,1188.00
2019-03-08T09:45:38.329Z,1380.00
2019-03-08T09:46:46.073Z,1256.00
2019-03-08T09:47:38.305Z,1452.00
2019-03-08T09:48:48.239Z,1344.00
2019-03-08T09:49:39.306Z,1140.00
2019-03-08T09:50:38.277Z,1064.00
2019-03-08T09:51:39.071Z,1532.00
2019-03-08T09:52:38.261Z,1280.00
2019-03-08T09:53:38.253Z,976.00
2019-03-08T09:54:38.242Z,900.00
2019-03-08T09:55:38.217Z,980.00
2019-03-08T09:56:38.205Z,848.00
2019-03-08T09:57:39.158Z,692.00
2019-03-08T09:58:38.183Z,516.00
2019-03-08T09:59:38.302Z,364.00
2019-03-08T10:00:38.161Z,440.00
2019-03-08T10:01:38.158Z,632.00
2019-03-08T10:02:38.145Z,676.00
2019-03-08T10:03:41.123Z,524.00
2019-03-08T10:04:38.130Z,524.00
2019-03-08T10:05:38.108Z,460.00
2019-03-08T10:06:38.754Z,612.00
2019-03-08T10:07:38.088Z,636.00
2019-03-08T10:08:38.075Z,472.00
2019-03-08T10:09:38.076Z,452.00
2019-03-08T10:10:38.059Z,440.00
2019-03-08T10:11:38.044Z,652.00
2019-03-08T10:12:38.036Z,780.00
2019-03-08T10:14:47.359Z,1008.00
2019-03-08T10:15:47.264Z,1092.00
2019-03-08T10:16:47.252Z,1632.00
2019-03-08T10:17:47.242Z,1020.00
2019-03-08T10:18:47.226Z,972.00
2019-03-08T10:19:47.235Z,1324.00
2019-03-08T10:20:47.214Z,840.00
2019-03-08T10:21:47.194Z,1016.00
2019-03-08T10:22:47.193Z,988.00
2019-03-08T10:23:47.174Z,992.00
2019-03-08T10:24:47.169Z,1128.00
2019-03-08T10:25:48.208Z,1148.00
2019-03-08T10:26:47.138Z,828.00
2019-03-08T10:27:47.134Z,1236.00
2019-03-08T10:28:47.122Z,1396.00
2019-03-08T10:29:47.134Z,1268.00
2019-03-08T10:30:47.094Z,1512.00
2019-03-08T10:31:47.083Z,1392.00
2019-03-08T10:32:47.073Z,2228.00
2019-03-08T10:33:47.063Z,2284.00
2019-03-08T10:34:47.060Z,2168.00
2019-03-08T10:35:50.019Z,2184.00
2019-03-08T10:36:47.033Z,2052.00
2019-03-08T10:37:47.015Z,1612.00
2019-03-08T10:38:47.013Z,2416.00
2019-03-08T10:39:47.602Z,2712.00
2019-03-08T10:40:46.984Z,3000.00
2019-03-08T10:41:46.972Z,3596.00
2019-03-08T10:42:46.966Z,2684.00
2019-03-08T10:43:46.956Z,4976.00
2019-03-08T10:44:47.050Z,4352.00
2019-03-08T10:45:46.931Z,4108.00
2019-03-08T10:46:46.924Z,3340.00
2019-03-08T10:47:55.577Z,2660.00
2019-03-08T10:48:47.905Z,2360.00
2019-03-08T10:49:54.882Z,2480.00
2019-03-08T10:50:47.876Z,2828.00
2019-03-08T10:51:46.861Z,2136.00
2019-03-08T10:52:46.853Z,2052.00
2019-03-08T10:53:46.839Z,2240.00
2019-03-08T10:54:46.843Z,2108.00
2019-03-08T10:55:46.817Z,2832.00
2019-03-08T10:56:47.496Z,2708.00
2019-03-08T10:57:48.061Z,5960.00
2019-03-08T10:58:46.783Z,6120.00
2019-03-08T10:59:46.789Z,3792.00
2019-03-08T11:00:46.759Z,2564.00
2019-03-08T11:01:49.523Z,1764.00
2019-03-08T11:02:48.168Z,1272.00
2019-03-08T11:03:46.728Z,1012.00
2019-03-08T11:04:46.759Z,804.00
2019-03-08T11:05:46.710Z,672.00
2019-03-08T11:06:46.696Z,460.00
2019-03-08T11:07:46.686Z,340.00
2019-03-08T11:08:46.682Z,348.00
2019-03-08T11:09:46.661Z,320.00
2019-03-08T11:10:48.438Z,316.00
2019-03-08T11:11:46.645Z,368.00
2019-03-08T11:12:46.630Z,404.00
2019-03-08T11:13:46.622Z,392.00
2019-03-08T11:14:46.605Z,388.00
2019-03-08T11:15:46.922Z,396.00
2019-03-08T11:16:46.585Z,368.00
2019-03-08T11:17:50.712Z,392.00
2019-03-08T11:18:46.562Z,444.00
2019-03-08T11:19:46.553Z,516.00
2019-03-08T11:20:46.571Z,772.00
2019-03-08T11:21:46.527Z,976.00
2019-03-08T11:22:46.519Z,952.00
2019-03-08T11:23:46.506Z,732.00
2019-03-08T11:24:47.047Z,664.00
2019-03-08T11:25:49.055Z,760.00
2019-03-08T11:26:46.472Z,924.00
2019-03-08T11:27:46.464Z,684.00
2019-03-08T11:28:46.450Z,548.00
2019-03-08T11:29:46.444Z,548.00
2019-03-08T11:30:53.744Z,752.00
2019-03-08T11:31:47.415Z,992.00
2019-03-08T11:32:46.490Z,1244.00
2019-03-08T11:33:46.397Z,1140.00
2019-03-08T11:34:52.076Z,708.00
2019-03-08T11:35:47.378Z,384.00
2019-03-08T11:36:47.088Z,320.00
2019-03-08T11:37:46.364Z,364.00
2019-03-08T11:38:46.337Z,388.00
2019-03-08T11:39:46.326Z,400.00
2019-03-08T11:40:58.147Z,372.00
2019-03-08T11:41:46.304Z,360.00
2019-03-08T11:42:46.299Z,336.00
2019-03-08T11:43:46.280Z,332.00
2019-03-08T11:44:46.273Z,420.00
2019-03-08T11:45:46.288Z,484.00
2019-03-08T11:46:46.247Z,580.00
2019-03-08T11:47:46.238Z,664.00
2019-03-08T11:48:46.231Z,764.00
2019-03-08T11:49:46.212Z,1244.00
2019-03-08T11:50:47.108Z,2632.00
2019-03-08T11:51:46.222Z,3180.00
2019-03-08T11:52:46.185Z,3820.00
2019-03-08T11:53:46.184Z,6200.00
2019-03-08T11:54:46.159Z,5480.00
2019-03-08T11:55:46.146Z,5196.00
2019-03-08T11:56:46.147Z,3636.00
2019-03-08T11:57:46.157Z,3720.00
2019-03-08T11:58:46.114Z,4404.00
2019-03-08T11:59:46.107Z,4028.00
2019-03-08T12:00:46.088Z,3676.00
2019-03-08T12:01:46.085Z,3616.00
2019-03-08T12:02:46.085Z,3540.00
2019-03-08T12:03:46.069Z,3332.00
2019-03-08T12:04:46.047Z,3324.00
2019-03-08T12:05:46.032Z,3252.00
2019-03-08T12:06:46.052Z,3148.00
2019-03-08T12:07:47.330Z,3108.00
2019-03-08T12:08:46.007Z,3172.00
2019-03-08T12:09:45.987Z,3160.00
2019-03-08T12:10:45.978Z,3152.00
2019-03-08T12:11:45.976Z,3276.00
2019-03-08T12:12:46.638Z,3020.00
2019-03-08T12:13:45.945Z,3488.00
2019-03-08T12:14:45.952Z,3384.00
2019-03-08T12:15:45.934Z,3112.00
2019-03-08T12:16:45.919Z,3136.00
2019-03-08T12:17:45.900Z,3744.00
2019-03-08T12:18:45.887Z,3620.00
2019-03-08T12:19:45.876Z,4800.00
2019-03-08T12:20:45.864Z,4996.00
2019-03-08T12:21:45.865Z,4860.00
2019-03-08T12:22:45.845Z,4116.00
2019-03-08T12:23:45.833Z,3376.00
2019-03-08T12:24:45.840Z,5184.00
2019-03-08T12:25:45.811Z,5372.00
2019-03-08T12:26:45.822Z,3828.00
2019-03-08T12:27:45.806Z,3020.00
2019-03-08T12:28:45.780Z,5316.00
2019-03-08T12:29:45.786Z,5724.00
2019-03-08T12:30:45.764Z,3912.00
2019-03-08T12:31:45.744Z,2480.00
2019-03-08T12:32:45.743Z,3044.00
2019-03-08T12:33:45.722Z,3728.00
2019-03-08T12:34:45.718Z,3708.00
2019-03-08T12:35:46.559Z,3880.00
2019-03-08T12:36:45.687Z,4016.00
2019-03-08T12:37:45.687Z,3844.00
2019-03-08T12:38:45.663Z,1988.00
2019-03-08T12:39:45.653Z,2132.00
2019-03-08T12:40:45.643Z,2108.00
2019-03-08T12:41:45.640Z,1800.00
2019-03-08T12:42:45.630Z,1456.00
2019-03-08T12:43:45.613Z,1584.00
2019-03-08T12:44:45.595Z,1704.00
2019-03-08T12:45:45.584Z,1108.00
2019-03-08T12:46:45.574Z,916.00
2019-03-08T12:47:45.575Z,664.00